sensor_id;sensor_type;location;lat;lon;timestamp;temperature;humidity
18456;DHT22;9357;49.900;8.208;2022-12-08T00:00:21;4.50;99.90
18456;DHT22;9357;49.900;8.208;2022-12-08T00:01:54;4.40;99.90
18456;DHT22;9357;49.900;8.208;2022-12-08T00:03:27;4.50;99.90
18456;DHT22;9357;49.900;8.208;2022-12-08T00:05:01;4.40;99.90
18456;DHT22;9357;49.900;8.208;2022-12-08T00:06:52;4.40;99.90
18456;DHT22;9357;49.900;8.208;2022-12-08T00:08:42;4.40;99.90
18456;DHT22;9357;49.900;8.208;2022-12-08T00:10:33;4.40;99.90
18456;DHT22;9357;49.900;8.208;2022-12-08T00:12:21;4.40;99.90
18456;DHT22;9357;49.900;8.208;2022-12-08T00:13:54;4.40;99.90
18456;DHT22;9357;49.900;8.208;2022-12-08T00:15:27;4.40;99.90
18456;DHT22;9357;49.900;8.208;2022-12-08T00:16:59;4.40;99.90
18456;DHT22;9357;49.900;8.208;2022-12-08T00:18:32;4.40;99.90
18456;DHT22;9357;49.900;8.208;2022-12-08T00:20:07;4.40;99.90
18456;DHT22;9357;49.900;8.208;2022-12-08T00:21:40;4.40;99.90
18456;DHT22;9357;49.900;8.208;2022-12-08T00:23:13;4.40;99.90
18456;DHT22;9357;49.900;8.208;2022-12-08T00:24:46;4.40;99.90
18456;DHT22;9357;49.900;8.208;2022-12-08T00:26:18;4.40;99.90
18456;DHT22;9357;49.900;8.208;2022-12-08T00:27:50;4.40;99.90
18456;DHT22;9357;49.900;8.208;2022-12-08T00:29:23;4.40;99.90
18456;DHT22;9357;49.900;8.208;2022-12-08T00:30:56;4.40;99.90
18456;DHT22;9357;49.900;8.208;2022-12-08T00:32:28;4.40;99.90
18456;DHT22;9357;49.900;8.208;2022-12-08T00:34:01;4.50;99.90
18456;DHT22;9357;49.900;8.208;2022-12-08T00:35:36;4.50;99.90
18456;DHT22;9357;49.900;8.208;2022-12-08T00:37:13;4.40;99.90
18456;DHT22;9357;49.900;8.208;2022-12-08T00:38:46;4.40;99.90
18456;DHT22;9357;49.900;8.208;2022-12-08T00:40:19;4.40;99.90
18456;DHT22;9357;49.900;8.208;2022-12-08T00:41:52;4.40;99.90
18456;DHT22;9357;49.900;8.208;2022-12-08T00:43:42;4.40;99.90
18456;DHT22;9357;49.900;8.208;2022-12-08T00:45:15;4.40;99.90
18456;DHT22;9357;49.900;8.208;2022-12-08T00:46:48;4.40;99.90
18456;DHT22;9357;49.900;8.208;2022-12-08T00:48:21;4.40;99.90
18456;DHT22;9357;49.900;8.208;2022-12-08T00:49:54;4.40;99.90
18456;DHT22;9357;49.900;8.208;2022-12-08T00:51:28;4.40;99.90
18456;DHT22;9357;49.900;8.208;2022-12-08T00:53:01;4.40;99.90
18456;DHT22;9357;49.900;8.208;2022-12-08T00:54:34;4.40;99.90
18456;DHT22;9357;49.900;8.208;2022-12-08T00:56:07;4.40;99.90
18456;DHT22;9357;49.900;8.208;2022-12-08T00:57:38;4.40;99.90
18456;DHT22;9357;49.900;8.208;2022-12-08T00:59:11;4.40;99.90
18456;DHT22;9357;49.900;8.208;2022-12-08T01:00:44;4.40;99.90
18456;DHT22;9357;49.900;8.208;2022-12-08T01:02:17;4.40;99.90
18456;DHT22;9357;49.900;8.208;2022-12-08T01:03:50;4.40;99.90
18456;DHT22;9357;49.900;8.208;2022-12-08T01:05:21;4.40;99.90
18456;DHT22;9357;49.900;8.208;2022-12-08T01:06:55;4.40;99.90
18456;DHT22;9357;49.900;8.208;2022-12-08T01:08:28;4.40;99.90
18456;DHT22;9357;49.900;8.208;2022-12-08T01:10:01;4.40;99.90
18456;DHT22;9357;49.900;8.208;2022-12-08T01:11:35;4.40;99.90
18456;DHT22;9357;49.900;8.208;2022-12-08T01:13:07;4.40;99.90
18456;DHT22;9357;49.900;8.208;2022-12-08T01:14:40;4.40;99.90
18456;DHT22;9357;49.900;8.208;2022-12-08T01:16:20;4.40;99.90
18456;DHT22;9357;49.900;8.208;2022-12-08T01:17:52;4.40;99.90
18456;DHT22;9357;49.900;8.208;2022-12-08T01:19:25;4.40;99.90
18456;DHT22;9357;49.900;8.208;2022-12-08T01:21:01;4.40;99.90
18456;DHT22;9357;49.900;8.208;2022-12-08T01:22:35;4.40;99.90
18456;DHT22;9357;49.900;8.208;2022-12-08T01:24:10;4.40;99.90
18456;DHT22;9357;49.900;8.208;2022-12-08T01:25:43;4.40;99.90
18456;DHT22;9357;49.900;8.208;2022-12-08T01:27:16;4.40;99.90
18456;DHT22;9357;49.900;8.208;2022-12-08T01:28:48;4.40;99.90
18456;DHT22;9357;49.900;8.208;2022-12-08T01:30:21;4.40;99.90
18456;DHT22;9357;49.900;8.208;2022-12-08T01:31:53;4.40;99.90
18456;DHT22;9357;49.900;8.208;2022-12-08T01:33:26;4.40;99.90
18456;DHT22;9357;49.900;8.208;2022-12-08T01:34:58;4.40;99.90
18456;DHT22;9357;49.900;8.208;2022-12-08T01:36:33;4.40;99.90
18456;DHT22;9357;49.900;8.208;2022-12-08T01:38:08;4.40;99.90
18456;DHT22;9357;49.900;8.208;2022-12-08T01:39:40;4.40;99.90
18456;DHT22;9357;49.900;8.208;2022-12-08T01:41:14;4.40;99.90
18456;DHT22;9357;49.900;8.208;2022-12-08T01:42:48;4.50;99.90
18456;DHT22;9357;49.900;8.208;2022-12-08T01:46:35;4.50;99.90
18456;DHT22;9357;49.900;8.208;2022-12-08T01:48:13;4.40;99.90
18456;DHT22;9357;49.900;8.208;2022-12-08T01:49:49;4.50;99.90
18456;DHT22;9357;49.900;8.208;2022-12-08T01:51:22;4.50;99.90
18456;DHT22;9357;49.900;8.208;2022-12-08T01:52:57;4.50;99.90
18456;DHT22;9357;49.900;8.208;2022-12-08T01:54:36;4.50;99.90
18456;DHT22;9357;49.900;8.208;2022-12-08T01:56:13;4.50;99.90
18456;DHT22;9357;49.900;8.208;2022-12-08T01:57:49;4.50;99.90
18456;DHT22;9357;49.900;8.208;2022-12-08T01:59:23;4.50;99.90
18456;DHT22;9357;49.900;8.208;2022-12-08T02:00:56;4.50;99.90
18456;DHT22;9357;49.900;8.208;2022-12-08T02:02:35;4.50;99.90
18456;DHT22;9357;49.900;8.208;2022-12-08T02:04:11;4.50;99.90
18456;DHT22;9357;49.900;8.208;2022-12-08T02:05:43;4.50;99.90
18456;DHT22;9357;49.900;8.208;2022-12-08T02:07:17;4.50;99.90
18456;DHT22;9357;49.900;8.208;2022-12-08T02:08:50;4.50;99.90
18456;DHT22;9357;49.900;8.208;2022-12-08T02:10:29;4.50;99.90
18456;DHT22;9357;49.900;8.208;2022-12-08T02:12:03;4.50;99.90
18456;DHT22;9357;49.900;8.208;2022-12-08T02:13:36;4.50;99.90
18456;DHT22;9357;49.900;8.208;2022-12-08T02:15:09;4.50;99.90
18456;DHT22;9357;49.900;8.208;2022-12-08T02:16:50;4.50;99.90
18456;DHT22;9357;49.900;8.208;2022-12-08T02:18:39;4.50;99.90
18456;DHT22;9357;49.900;8.208;2022-12-08T02:20:38;4.50;99.90
18456;DHT22;9357;49.900;8.208;2022-12-08T02:22:17;4.50;99.90
18456;DHT22;9357;49.900;8.208;2022-12-08T02:23:58;4.50;99.90
18456;DHT22;9357;49.900;8.208;2022-12-08T02:25:39;4.40;99.90
18456;DHT22;9357;49.900;8.208;2022-12-08T02:27:26;4.50;99.90
18456;DHT22;9357;49.900;8.208;2022-12-08T02:31:20;4.50;99.90
18456;DHT22;9357;49.900;8.208;2022-12-08T02:35:09;4.50;99.90
18456;DHT22;9357;49.900;8.208;2022-12-08T02:36:49;4.40;99.90
18456;DHT22;9357;49.900;8.208;2022-12-08T02:38:33;4.40;99.90
18456;DHT22;9357;49.900;8.208;2022-12-08T02:40:13;4.40;99.90
18456;DHT22;9357;49.900;8.208;2022-12-08T02:41:55;4.40;99.90
18456;DHT22;9357;49.900;8.208;2022-12-08T02:43:33;4.40;99.90
18456;DHT22;9357;49.900;8.208;2022-12-08T02:45:10;4.40;99.90
18456;DHT22;9357;49.900;8.208;2022-12-08T02:46:56;4.40;99.90
18456;DHT22;9357;49.900;8.208;2022-12-08T02:48:29;4.30;99.90
18456;DHT22;9357;49.900;8.208;2022-12-08T02:50:04;4.30;99.90
18456;DHT22;9357;49.900;8.208;2022-12-08T02:51:38;4.30;99.90
18456;DHT22;9357;49.900;8.208;2022-12-08T02:53:11;4.30;99.90
18456;DHT22;9357;49.900;8.208;2022-12-08T02:54:47;4.30;99.90
18456;DHT22;9357;49.900;8.208;2022-12-08T02:56:35;4.30;99.90
18456;DHT22;9357;49.900;8.208;2022-12-08T02:58:31;4.30;99.90
18456;DHT22;9357;49.900;8.208;2022-12-08T03:00:10;4.30;99.90
18456;DHT22;9357;49.900;8.208;2022-12-08T03:01:58;4.20;99.90
18456;DHT22;9357;49.900;8.208;2022-12-08T03:03:41;4.20;99.90
18456;DHT22;9357;49.900;8.208;2022-12-08T03:05:31;4.20;99.90
18456;DHT22;9357;49.900;8.208;2022-12-08T03:07:14;4.20;99.90
18456;DHT22;9357;49.900;8.208;2022-12-08T03:08:56;4.20;99.90
18456;DHT22;9357;49.900;8.208;2022-12-08T03:10:33;4.20;99.90
18456;DHT22;9357;49.900;8.208;2022-12-08T03:12:12;4.20;99.90
18456;DHT22;9357;49.900;8.208;2022-12-08T03:13:48;4.10;99.90
18456;DHT22;9357;49.900;8.208;2022-12-08T03:15:22;4.10;99.90
18456;DHT22;9357;49.900;8.208;2022-12-08T03:16:57;4.10;99.90
18456;DHT22;9357;49.900;8.208;2022-12-08T03:18:31;4.10;99.90
18456;DHT22;9357;49.900;8.208;2022-12-08T03:20:09;4.10;99.90
18456;DHT22;9357;49.900;8.208;2022-12-08T03:21:43;4.10;99.90
18456;DHT22;9357;49.900;8.208;2022-12-08T03:23:21;4.10;99.90
18456;DHT22;9357;49.900;8.208;2022-12-08T03:24:55;4.10;99.90
18456;DHT22;9357;49.900;8.208;2022-12-08T03:26:30;4.20;99.90
18456;DHT22;9357;49.900;8.208;2022-12-08T03:28:05;4.20;99.90
18456;DHT22;9357;49.900;8.208;2022-12-08T03:29:39;4.10;99.90
18456;DHT22;9357;49.900;8.208;2022-12-08T03:31:13;4.20;99.90
18456;DHT22;9357;49.900;8.208;2022-12-08T03:32:51;4.20;99.90
18456;DHT22;9357;49.900;8.208;2022-12-08T03:34:27;4.20;99.90
18456;DHT22;9357;49.900;8.208;2022-12-08T03:36:03;4.20;99.90
18456;DHT22;9357;49.900;8.208;2022-12-08T03:37:38;4.20;99.90
18456;DHT22;9357;49.900;8.208;2022-12-08T03:39:13;4.20;99.90
18456;DHT22;9357;49.900;8.208;2022-12-08T03:40:46;4.20;99.90
18456;DHT22;9357;49.900;8.208;2022-12-08T03:42:39;4.20;99.90
18456;DHT22;9357;49.900;8.208;2022-12-08T03:44:12;4.20;99.90
18456;DHT22;9357;49.900;8.208;2022-12-08T03:45:44;4.20;99.90
18456;DHT22;9357;49.900;8.208;2022-12-08T03:47:16;4.20;99.90
18456;DHT22;9357;49.900;8.208;2022-12-08T03:48:49;4.20;99.90
18456;DHT22;9357;49.900;8.208;2022-12-08T03:50:23;4.20;99.90
18456;DHT22;9357;49.900;8.208;2022-12-08T03:51:56;4.30;99.90
18456;DHT22;9357;49.900;8.208;2022-12-08T03:53:28;4.20;99.90
18456;DHT22;9357;49.900;8.208;2022-12-08T03:55:03;4.20;99.90
18456;DHT22;9357;49.900;8.208;2022-12-08T03:56:37;4.20;99.90
18456;DHT22;9357;49.900;8.208;2022-12-08T03:58:10;4.20;99.90
18456;DHT22;9357;49.900;8.208;2022-12-08T03:59:43;4.20;99.90
18456;DHT22;9357;49.900;8.208;2022-12-08T04:01:15;4.30;99.90
18456;DHT22;9357;49.900;8.208;2022-12-08T04:02:47;4.30;99.90
18456;DHT22;9357;49.900;8.208;2022-12-08T04:04:20;4.20;99.90
18456;DHT22;9357;49.900;8.208;2022-12-08T04:05:52;4.30;99.90
18456;DHT22;9357;49.900;8.208;2022-12-08T04:07:24;4.30;99.90
18456;DHT22;9357;49.900;8.208;2022-12-08T04:08:57;4.30;99.90
18456;DHT22;9357;49.900;8.208;2022-12-08T04:10:31;4.20;99.90
18456;DHT22;9357;49.900;8.208;2022-12-08T04:12:04;4.30;99.90
18456;DHT22;9357;49.900;8.208;2022-12-08T04:13:38;4.30;99.90
18456;DHT22;9357;49.900;8.208;2022-12-08T04:15:10;4.30;99.90
18456;DHT22;9357;49.900;8.208;2022-12-08T04:16:43;4.30;99.90
18456;DHT22;9357;49.900;8.208;2022-12-08T04:18:16;4.30;99.90
18456;DHT22;9357;49.900;8.208;2022-12-08T04:19:48;4.30;99.90
18456;DHT22;9357;49.900;8.208;2022-12-08T04:21:21;4.30;99.90
18456;DHT22;9357;49.900;8.208;2022-12-08T04:22:53;4.30;99.90
18456;DHT22;9357;49.900;8.208;2022-12-08T04:24:26;4.30;99.90
18456;DHT22;9357;49.900;8.208;2022-12-08T04:26:00;4.30;99.90
18456;DHT22;9357;49.900;8.208;2022-12-08T04:27:33;4.30;99.90
18456;DHT22;9357;49.900;8.208;2022-12-08T04:29:06;4.30;99.90
18456;DHT22;9357;49.900;8.208;2022-12-08T04:30:38;4.30;99.90
18456;DHT22;9357;49.900;8.208;2022-12-08T04:32:11;4.30;99.90
18456;DHT22;9357;49.900;8.208;2022-12-08T04:33:44;4.30;99.90
18456;DHT22;9357;49.900;8.208;2022-12-08T04:35:17;4.30;99.90
18456;DHT22;9357;49.900;8.208;2022-12-08T04:36:48;4.30;99.90
18456;DHT22;9357;49.900;8.208;2022-12-08T04:38:22;4.30;99.90
18456;DHT22;9357;49.900;8.208;2022-12-08T04:39:55;4.20;99.90
18456;DHT22;9357;49.900;8.208;2022-12-08T04:41:29;4.20;99.90
18456;DHT22;9357;49.900;8.208;2022-12-08T04:43:01;4.20;99.90
18456;DHT22;9357;49.900;8.208;2022-12-08T04:44:34;4.20;99.90
18456;DHT22;9357;49.900;8.208;2022-12-08T04:46:07;4.20;99.90
18456;DHT22;9357;49.900;8.208;2022-12-08T04:47:41;4.20;99.90
18456;DHT22;9357;49.900;8.208;2022-12-08T04:49:14;4.10;99.90
18456;DHT22;9357;49.900;8.208;2022-12-08T04:50:46;4.10;99.90
18456;DHT22;9357;49.900;8.208;2022-12-08T04:52:19;4.10;99.90
18456;DHT22;9357;49.900;8.208;2022-12-08T04:53:52;4.10;99.90
18456;DHT22;9357;49.900;8.208;2022-12-08T04:55:25;4.10;99.90
18456;DHT22;9357;49.900;8.208;2022-12-08T04:56:59;4.10;99.90
18456;DHT22;9357;49.900;8.208;2022-12-08T04:58:31;4.10;99.90
18456;DHT22;9357;49.900;8.208;2022-12-08T05:00:05;4.00;99.90
18456;DHT22;9357;49.900;8.208;2022-12-08T05:01:38;4.00;99.90
18456;DHT22;9357;49.900;8.208;2022-12-08T05:03:12;4.00;99.90
18456;DHT22;9357;49.900;8.208;2022-12-08T05:04:45;4.00;99.90
18456;DHT22;9357;49.900;8.208;2022-12-08T05:06:17;4.00;99.90
18456;DHT22;9357;49.900;8.208;2022-12-08T05:07:50;4.00;99.90
18456;DHT22;9357;49.900;8.208;2022-12-08T05:09:23;4.00;99.90
18456;DHT22;9357;49.900;8.208;2022-12-08T05:11:01;3.90;99.90
18456;DHT22;9357;49.900;8.208;2022-12-08T05:12:35;3.90;99.90
18456;DHT22;9357;49.900;8.208;2022-12-08T05:14:09;3.90;99.90
18456;DHT22;9357;49.900;8.208;2022-12-08T05:15:42;4.00;99.90
18456;DHT22;9357;49.900;8.208;2022-12-08T05:17:15;3.90;99.90
18456;DHT22;9357;49.900;8.208;2022-12-08T05:18:48;3.90;99.90
18456;DHT22;9357;49.900;8.208;2022-12-08T05:20:21;3.90;99.90
18456;DHT22;9357;49.900;8.208;2022-12-08T05:21:54;3.90;99.90
18456;DHT22;9357;49.900;8.208;2022-12-08T05:23:27;3.90;99.90
18456;DHT22;9357;49.900;8.208;2022-12-08T05:25:00;3.90;99.90
18456;DHT22;9357;49.900;8.208;2022-12-08T05:26:33;3.90;99.90
18456;DHT22;9357;49.900;8.208;2022-12-08T05:28:07;3.90;99.90
18456;DHT22;9357;49.900;8.208;2022-12-08T05:29:59;3.90;99.90
18456;DHT22;9357;49.900;8.208;2022-12-08T05:31:33;3.80;99.90
18456;DHT22;9357;49.900;8.208;2022-12-08T05:33:06;3.80;99.90
18456;DHT22;9357;49.900;8.208;2022-12-08T05:34:39;3.80;99.90
18456;DHT22;9357;49.900;8.208;2022-12-08T05:36:13;3.80;99.90
18456;DHT22;9357;49.900;8.208;2022-12-08T05:37:46;3.80;99.90
18456;DHT22;9357;49.900;8.208;2022-12-08T05:39:18;3.80;99.90
18456;DHT22;9357;49.900;8.208;2022-12-08T05:40:51;3.80;99.90
18456;DHT22;9357;49.900;8.208;2022-12-08T05:42:24;3.70;99.90
18456;DHT22;9357;49.900;8.208;2022-12-08T05:43:57;3.70;99.90
18456;DHT22;9357;49.900;8.208;2022-12-08T05:45:30;3.70;99.90
18456;DHT22;9357;49.900;8.208;2022-12-08T05:47:03;3.70;99.90
18456;DHT22;9357;49.900;8.208;2022-12-08T05:48:36;3.70;99.90
18456;DHT22;9357;49.900;8.208;2022-12-08T05:50:09;3.80;99.90
18456;DHT22;9357;49.900;8.208;2022-12-08T05:51:42;3.70;99.90
18456;DHT22;9357;49.900;8.208;2022-12-08T05:53:15;3.70;99.90
18456;DHT22;9357;49.900;8.208;2022-12-08T05:54:48;3.70;99.90
18456;DHT22;9357;49.900;8.208;2022-12-08T05:56:22;3.70;99.90
18456;DHT22;9357;49.900;8.208;2022-12-08T05:57:55;3.70;99.90
18456;DHT22;9357;49.900;8.208;2022-12-08T05:59:29;3.70;99.90
18456;DHT22;9357;49.900;8.208;2022-12-08T06:01:01;3.70;99.90
18456;DHT22;9357;49.900;8.208;2022-12-08T06:02:34;3.70;99.90
18456;DHT22;9357;49.900;8.208;2022-12-08T06:04:08;3.70;99.90
18456;DHT22;9357;49.900;8.208;2022-12-08T06:05:42;3.70;99.90
18456;DHT22;9357;49.900;8.208;2022-12-08T06:07:15;3.70;99.90
18456;DHT22;9357;49.900;8.208;2022-12-08T06:08:48;3.70;99.90
18456;DHT22;9357;49.900;8.208;2022-12-08T06:10:21;3.70;99.90
18456;DHT22;9357;49.900;8.208;2022-12-08T06:11:54;3.70;99.90
18456;DHT22;9357;49.900;8.208;2022-12-08T06:13:26;3.70;99.90
18456;DHT22;9357;49.900;8.208;2022-12-08T06:15:01;3.70;99.90
18456;DHT22;9357;49.900;8.208;2022-12-08T06:16:34;3.70;99.90
18456;DHT22;9357;49.900;8.208;2022-12-08T06:18:09;3.70;99.90
18456;DHT22;9357;49.900;8.208;2022-12-08T06:19:42;3.70;99.90
18456;DHT22;9357;49.900;8.208;2022-12-08T06:21:15;3.70;99.90
18456;DHT22;9357;49.900;8.208;2022-12-08T06:22:48;3.70;99.90
18456;DHT22;9357;49.900;8.208;2022-12-08T06:24:21;3.70;99.90
18456;DHT22;9357;49.900;8.208;2022-12-08T06:25:54;3.70;99.90
18456;DHT22;9357;49.900;8.208;2022-12-08T06:27:27;3.70;99.90
18456;DHT22;9357;49.900;8.208;2022-12-08T06:28:59;3.70;99.90
18456;DHT22;9357;49.900;8.208;2022-12-08T06:30:33;3.70;99.90
18456;DHT22;9357;49.900;8.208;2022-12-08T06:32:06;3.70;99.90
18456;DHT22;9357;49.900;8.208;2022-12-08T06:33:39;3.70;99.90
18456;DHT22;9357;49.900;8.208;2022-12-08T06:35:12;3.70;99.90
18456;DHT22;9357;49.900;8.208;2022-12-08T06:36:45;3.70;99.90
18456;DHT22;9357;49.900;8.208;2022-12-08T06:38:18;3.70;99.90
18456;DHT22;9357;49.900;8.208;2022-12-08T06:39:50;3.70;99.90
18456;DHT22;9357;49.900;8.208;2022-12-08T06:41:23;3.70;99.90
18456;DHT22;9357;49.900;8.208;2022-12-08T06:42:56;3.70;99.90
18456;DHT22;9357;49.900;8.208;2022-12-08T06:44:28;3.70;99.90
18456;DHT22;9357;49.900;8.208;2022-12-08T06:46:05;3.70;99.90
18456;DHT22;9357;49.900;8.208;2022-12-08T06:47:38;3.70;99.90
18456;DHT22;9357;49.900;8.208;2022-12-08T06:49:11;3.70;99.90
18456;DHT22;9357;49.900;8.208;2022-12-08T06:50:44;3.70;99.90
18456;DHT22;9357;49.900;8.208;2022-12-08T06:52:17;3.70;99.90
18456;DHT22;9357;49.900;8.208;2022-12-08T06:53:50;3.80;99.90
18456;DHT22;9357;49.900;8.208;2022-12-08T06:55:22;3.80;99.90
18456;DHT22;9357;49.900;8.208;2022-12-08T06:57:15;3.80;99.90
18456;DHT22;9357;49.900;8.208;2022-12-08T06:58:48;3.80;99.90
18456;DHT22;9357;49.900;8.208;2022-12-08T07:00:24;3.80;99.90
18456;DHT22;9357;49.900;8.208;2022-12-08T07:01:58;3.80;99.90
18456;DHT22;9357;49.900;8.208;2022-12-08T07:03:31;3.80;99.90
18456;DHT22;9357;49.900;8.208;2022-12-08T07:05:04;3.80;99.90
18456;DHT22;9357;49.900;8.208;2022-12-08T07:06:37;3.70;99.90
18456;DHT22;9357;49.900;8.208;2022-12-08T07:08:10;3.80;99.90
18456;DHT22;9357;49.900;8.208;2022-12-08T07:09:43;3.70;99.90
18456;DHT22;9357;49.900;8.208;2022-12-08T07:11:16;3.80;99.90
18456;DHT22;9357;49.900;8.208;2022-12-08T07:12:53;3.80;99.90
18456;DHT22;9357;49.900;8.208;2022-12-08T07:14:25;3.80;99.90
18456;DHT22;9357;49.900;8.208;2022-12-08T07:15:58;3.80;99.90
18456;DHT22;9357;49.900;8.208;2022-12-08T07:17:32;3.70;99.90
18456;DHT22;9357;49.900;8.208;2022-12-08T07:19:06;3.80;99.90
18456;DHT22;9357;49.900;8.208;2022-12-08T07:20:38;3.80;99.90
18456;DHT22;9357;49.900;8.208;2022-12-08T07:22:11;3.80;99.90
18456;DHT22;9357;49.900;8.208;2022-12-08T07:23:45;3.80;99.90
18456;DHT22;9357;49.900;8.208;2022-12-08T07:25:27;3.80;99.90
18456;DHT22;9357;49.900;8.208;2022-12-08T07:27:00;3.80;99.90
18456;DHT22;9357;49.900;8.208;2022-12-08T07:28:35;3.80;99.90
18456;DHT22;9357;49.900;8.208;2022-12-08T07:30:08;3.80;99.90
18456;DHT22;9357;49.900;8.208;2022-12-08T07:31:42;3.80;99.90
18456;DHT22;9357;49.900;8.208;2022-12-08T07:33:16;3.80;99.90
18456;DHT22;9357;49.900;8.208;2022-12-08T07:34:48;3.80;99.90
18456;DHT22;9357;49.900;8.208;2022-12-08T07:36:22;3.80;99.90
18456;DHT22;9357;49.900;8.208;2022-12-08T07:37:55;3.80;99.90
18456;DHT22;9357;49.900;8.208;2022-12-08T07:39:28;3.80;99.90
18456;DHT22;9357;49.900;8.208;2022-12-08T07:41:01;3.90;99.90
18456;DHT22;9357;49.900;8.208;2022-12-08T07:42:34;3.90;99.90
18456;DHT22;9357;49.900;8.208;2022-12-08T07:44:07;3.90;99.90
18456;DHT22;9357;49.900;8.208;2022-12-08T07:45:40;3.90;99.90
18456;DHT22;9357;49.900;8.208;2022-12-08T07:47:13;3.90;99.90
18456;DHT22;9357;49.900;8.208;2022-12-08T07:48:47;3.90;99.90
18456;DHT22;9357;49.900;8.208;2022-12-08T07:50:20;3.90;99.90
18456;DHT22;9357;49.900;8.208;2022-12-08T07:51:52;3.90;99.90
18456;DHT22;9357;49.900;8.208;2022-12-08T07:53:25;3.90;99.90
18456;DHT22;9357;49.900;8.208;2022-12-08T07:54:58;3.90;99.90
18456;DHT22;9357;49.900;8.208;2022-12-08T07:56:31;3.90;99.90
18456;DHT22;9357;49.900;8.208;2022-12-08T07:58:03;3.90;99.90
18456;DHT22;9357;49.900;8.208;2022-12-08T07:59:36;3.90;99.90
18456;DHT22;9357;49.900;8.208;2022-12-08T08:01:17;3.90;99.90
18456;DHT22;9357;49.900;8.208;2022-12-08T08:02:50;3.90;99.90
18456;DHT22;9357;49.900;8.208;2022-12-08T08:04:25;3.90;99.90
18456;DHT22;9357;49.900;8.208;2022-12-08T08:06:01;3.90;99.90
18456;DHT22;9357;49.900;8.208;2022-12-08T08:07:34;3.90;99.90
18456;DHT22;9357;49.900;8.208;2022-12-08T08:09:07;3.90;99.90
18456;DHT22;9357;49.900;8.208;2022-12-08T08:10:41;3.90;99.90
18456;DHT22;9357;49.900;8.208;2022-12-08T08:12:13;4.00;99.90
18456;DHT22;9357;49.900;8.208;2022-12-08T08:14:02;4.00;99.90
18456;DHT22;9357;49.900;8.208;2022-12-08T08:15:35;4.00;99.90
18456;DHT22;9357;49.900;8.208;2022-12-08T08:17:08;4.00;99.90
18456;DHT22;9357;49.900;8.208;2022-12-08T08:18:41;4.00;99.90
18456;DHT22;9357;49.900;8.208;2022-12-08T08:20:15;4.00;99.90
18456;DHT22;9357;49.900;8.208;2022-12-08T08:21:48;4.00;99.90
18456;DHT22;9357;49.900;8.208;2022-12-08T08:23:20;4.00;99.90
18456;DHT22;9357;49.900;8.208;2022-12-08T08:24:53;4.00;99.90
18456;DHT22;9357;49.900;8.208;2022-12-08T08:26:26;4.00;99.90
18456;DHT22;9357;49.900;8.208;2022-12-08T08:27:59;4.00;99.90
18456;DHT22;9357;49.900;8.208;2022-12-08T08:29:32;4.00;99.90
18456;DHT22;9357;49.900;8.208;2022-12-08T08:31:05;4.00;99.90
18456;DHT22;9357;49.900;8.208;2022-12-08T08:32:38;4.00;99.90
18456;DHT22;9357;49.900;8.208;2022-12-08T08:34:11;4.00;99.90
18456;DHT22;9357;49.900;8.208;2022-12-08T08:35:45;4.00;99.90
18456;DHT22;9357;49.900;8.208;2022-12-08T08:37:18;4.00;99.90
18456;DHT22;9357;49.900;8.208;2022-12-08T08:38:51;4.10;99.90
18456;DHT22;9357;49.900;8.208;2022-12-08T08:40:24;4.10;99.90
18456;DHT22;9357;49.900;8.208;2022-12-08T08:41:57;4.10;99.90
18456;DHT22;9357;49.900;8.208;2022-12-08T08:43:29;4.10;99.90
18456;DHT22;9357;49.900;8.208;2022-12-08T08:45:09;4.10;99.90
18456;DHT22;9357;49.900;8.208;2022-12-08T08:46:42;4.10;99.90
18456;DHT22;9357;49.900;8.208;2022-12-08T08:48:15;4.10;99.90
18456;DHT22;9357;49.900;8.208;2022-12-08T08:49:48;4.10;99.90
18456;DHT22;9357;49.900;8.208;2022-12-08T08:51:23;4.10;99.90
18456;DHT22;9357;49.900;8.208;2022-12-08T08:52:55;4.10;99.90
18456;DHT22;9357;49.900;8.208;2022-12-08T08:54:28;4.10;99.90
18456;DHT22;9357;49.900;8.208;2022-12-08T08:56:01;4.10;99.90
18456;DHT22;9357;49.900;8.208;2022-12-08T08:57:35;4.10;99.90
18456;DHT22;9357;49.900;8.208;2022-12-08T08:59:08;4.20;99.90
18456;DHT22;9357;49.900;8.208;2022-12-08T09:00:42;4.20;99.90
18456;DHT22;9357;49.900;8.208;2022-12-08T09:02:16;4.10;99.90
18456;DHT22;9357;49.900;8.208;2022-12-08T09:03:51;4.10;99.90
18456;DHT22;9357;49.900;8.208;2022-12-08T09:05:24;4.10;99.90
18456;DHT22;9357;49.900;8.208;2022-12-08T09:06:58;4.10;99.90
18456;DHT22;9357;49.900;8.208;2022-12-08T09:08:31;4.10;99.90
18456;DHT22;9357;49.900;8.208;2022-12-08T09:10:04;4.10;99.90
18456;DHT22;9357;49.900;8.208;2022-12-08T09:11:38;4.10;99.90
18456;DHT22;9357;49.900;8.208;2022-12-08T09:13:11;4.20;99.90
18456;DHT22;9357;49.900;8.208;2022-12-08T09:14:44;4.20;99.90
18456;DHT22;9357;49.900;8.208;2022-12-08T09:16:18;4.20;99.90
18456;DHT22;9357;49.900;8.208;2022-12-08T09:17:51;4.20;99.90
18456;DHT22;9357;49.900;8.208;2022-12-08T09:19:24;4.20;99.90
18456;DHT22;9357;49.900;8.208;2022-12-08T09:21:03;4.20;99.90
18456;DHT22;9357;49.900;8.208;2022-12-08T09:22:37;4.20;99.90
18456;DHT22;9357;49.900;8.208;2022-12-08T09:24:10;4.20;99.90
18456;DHT22;9357;49.900;8.208;2022-12-08T09:25:46;4.30;99.90
18456;DHT22;9357;49.900;8.208;2022-12-08T09:27:19;4.30;99.90
18456;DHT22;9357;49.900;8.208;2022-12-08T09:28:53;4.30;99.90
18456;DHT22;9357;49.900;8.208;2022-12-08T09:30:26;4.30;99.90
18456;DHT22;9357;49.900;8.208;2022-12-08T09:31:59;4.30;99.90
18456;DHT22;9357;49.900;8.208;2022-12-08T09:33:32;4.30;99.90
18456;DHT22;9357;49.900;8.208;2022-12-08T09:35:05;4.30;99.90
18456;DHT22;9357;49.900;8.208;2022-12-08T09:36:37;4.40;99.90
18456;DHT22;9357;49.900;8.208;2022-12-08T09:38:12;4.40;99.90
18456;DHT22;9357;49.900;8.208;2022-12-08T09:39:45;4.40;99.90
18456;DHT22;9357;49.900;8.208;2022-12-08T09:41:24;4.40;99.90
18456;DHT22;9357;49.900;8.208;2022-12-08T09:43:19;4.40;99.90
18456;DHT22;9357;49.900;8.208;2022-12-08T09:44:56;4.50;99.90
18456;DHT22;9357;49.900;8.208;2022-12-08T09:46:33;4.50;99.90
18456;DHT22;9357;49.900;8.208;2022-12-08T09:48:11;4.50;99.90
18456;DHT22;9357;49.900;8.208;2022-12-08T09:49:52;4.60;99.90
18456;DHT22;9357;49.900;8.208;2022-12-08T09:51:30;4.60;99.90
18456;DHT22;9357;49.900;8.208;2022-12-08T09:53:08;4.60;99.90
18456;DHT22;9357;49.900;8.208;2022-12-08T09:54:45;4.70;99.90
18456;DHT22;9357;49.900;8.208;2022-12-08T09:56:21;4.70;99.90
18456;DHT22;9357;49.900;8.208;2022-12-08T09:57:59;4.70;99.90
18456;DHT22;9357;49.900;8.208;2022-12-08T09:59:34;4.70;99.90
18456;DHT22;9357;49.900;8.208;2022-12-08T10:01:08;4.80;99.90
18456;DHT22;9357;49.900;8.208;2022-12-08T10:02:43;4.80;99.90
18456;DHT22;9357;49.900;8.208;2022-12-08T10:04:21;4.80;99.90
18456;DHT22;9357;49.900;8.208;2022-12-08T10:05:59;4.80;99.90
18456;DHT22;9357;49.900;8.208;2022-12-08T10:07:42;4.80;99.90
18456;DHT22;9357;49.900;8.208;2022-12-08T10:09:27;4.90;99.90
18456;DHT22;9357;49.900;8.208;2022-12-08T10:11:10;4.90;99.90
18456;DHT22;9357;49.900;8.208;2022-12-08T10:12:46;4.90;99.90
18456;DHT22;9357;49.900;8.208;2022-12-08T10:14:25;5.00;99.90
18456;DHT22;9357;49.900;8.208;2022-12-08T10:16:11;4.90;99.90
18456;DHT22;9357;49.900;8.208;2022-12-08T10:17:59;5.00;99.90
18456;DHT22;9357;49.900;8.208;2022-12-08T10:19:33;5.00;99.90
18456;DHT22;9357;49.900;8.208;2022-12-08T10:21:14;5.00;99.90
18456;DHT22;9357;49.900;8.208;2022-12-08T10:22:50;5.00;99.90
18456;DHT22;9357;49.900;8.208;2022-12-08T10:24:28;5.00;99.90
18456;DHT22;9357;49.900;8.208;2022-12-08T10:26:06;5.00;99.90